F/V Manbrisa — FMGR — position and weather

sailwx.info

Track history (hours):
 
Tides and Currents Weather Stations Pressure Air Temp Water Temp Dewpoint Dewpoint Depression Visibility Wind Speed Wind Dir Waves Ship Positions

F/V Manbrisa

Last reported at 2018-Jun-22 02:56 UTC. Time now 2018-Jun-22 07:43 UTC.
Position N 46°36' W 002°11'.

Length 18 m.

Type: Fishing. MMSI: 228229900.

Date/timePositionNaut miles runAvg speedWind from/ knotsBaromVisibWave heightAir tempDewpointWater temp
2018-Jun-22 02:56N 46°36' W 002°11'510.6
2018-Jun-22 02:30N 46°34' W 002°05'510.7
2018-Jun-22 02:00N 46°31' W 001°58'510.5
2018-Jun-22 01:30N 46°29' W 001°51'3 5.8
2018-Jun-22 01:00N 46°30' W 001°47'0 0.0
2018-Jun-22 00:29N 46°30' W 001°47'0 0.3
2018-Jun-22 00:00N 46°30' W 001°47'0 0.9
2018-Jun-21 23:30N 46°29' W 001°48'3 6.2
2018-Jun-21 23:00N 46°29' W 001°52'4 9.0
2018-Jun-21 22:30N 46°31' W 001°58'4 8.7
2018-Jun-21 22:00N 46°33' W 002°04'4 9.1
2018-Jun-21 21:30N 46°35' W 002°10'5 9.4
2018-Jun-21 20:58N 46°37' W 002°16'6 9.3
2018-Jun-21 20:22N 46°40' W 002°23'34 3.9
2018-Jun-21 11:34N 46°59' W 003°05'1 8.1
2018-Jun-21 11:29N 47°00' W 003°04'1 1.1
2018-Jun-21 10:49N 46°60' W 003°06'0 0.9
2018-Jun-21 10:21N 47°00' W 003°05'0 0.6
2018-Jun-21 09:59N 47°00' W 003°05'0 0.9
2018-Jun-21 09:28N 47°01' W 003°05'1 2.0
2018-Jun-21 08:58N 47°01' W 003°04'1 1.6
2018-Jun-21 08:19N 47°02' W 003°05'0 0.8
2018-Jun-21 07:46N 47°02' W 003°05'1 0.6
2018-Jun-21 06:31N 47°03' W 003°05'0 8.0
2018-Jun-21 06:28N 47°03' W 003°04'1 3.0
2018-Jun-21 05:59N 47°03' W 003°06'0 0.5
2018-Jun-21 05:23N 47°04' W 003°06'1 2.8
2018-Jun-21 04:59N 47°04' W 003°05'2 4.4
2018-Jun-21 04:29N 47°04' W 003°08'0 0.8
2018-Jun-21 03:59N 47°04' W 003°08'0 0.5
2018-Jun-21 03:30N 47°04' W 003°08'1 1.2
2018-Jun-21 03:00N 47°04' W 003°09'0 0.3
2018-Jun-21 02:30N 47°04' W 003°09'1 2.3
2018-Jun-21 02:00N 47°03' W 003°10'1 1.2
2018-Jun-21 01:30N 47°03' W 003°09'1 1.2
2018-Jun-21 01:00N 47°03' W 003°08'1 1.3
2018-Jun-21 00:30N 47°04' W 003°07'2 4.9
2018-Jun-21 00:00N 47°06' W 003°09'2 4.9
2018-Jun-20 23:30N 47°08' W 003°10'3 5.2
2018-Jun-20 23:00N 47°11' W 003°12'1 2.4
2018-Jun-20 22:30N 47°09' W 003°12'3 5.7
2018-Jun-20 21:58N 47°07' W 003°10'3 5.7
2018-Jun-20 21:29N 47°05' W 003°08'3 5.6
2018-Jun-20 21:00N 47°02' W 003°05'6 3.6
2018-Jun-20 19:18N 46°57' W 003°01'1 2.4
2018-Jun-20 19:00N 46°57' W 003°00'2 4.1
2018-Jun-20 18:30N 46°55' W 003°02'2 4.2
2018-Jun-20 17:59N 46°54' W 003°04'1 1.3
2018-Jun-20 17:30N 46°53' W 003°05'5 3.0
2018-Jun-20 15:41N 46°58' W 003°01'1 0.5
2018-Jun-20 14:25N 46°59' W 003°02'2 1.4
2018-Jun-20 13:14N 46°58' W 003°04'1 3.8
2018-Jun-20 13:00N 46°59' W 003°03'1 0.6
2018-Jun-20 11:49N 46°59' W 003°03'1 1.0
2018-Jun-20 11:04N 46°59' W 003°04'0 0.9
2018-Jun-20 10:50N 46°59' W 003°04'0 0.5
2018-Jun-20 10:26N 46°59' W 003°04'1 2.4
2018-Jun-20 09:56N 46°60' W 003°02'1 2.3
2018-Jun-20 09:27N 47°01' W 003°02'2 3.3
2018-Jun-20 08:56N 46°60' W 003°01'0 0.4
2018-Jun-20 08:28N 46°60' W 003°01'1 1.1
2018-Jun-20 07:50N 46°60' W 003°02'1 1.8
2018-Jun-20 07:20N 47°00' W 003°01'0 0.9
2018-Jun-20 06:54N 47°00' W 003°00'1 1.6
2018-Jun-20 06:13N 46°59' W 003°00'0 0.3
2018-Jun-20 06:00N 46°59' W 002°60'1 1.3
2018-Jun-20 05:30N 46°59' W 003°01'1 1.1
2018-Jun-20 05:00N 46°59' W 003°00'2 3.0
2018-Jun-20 04:29N 46°58' W 002°58'2 3.3
2018-Jun-20 04:00N 46°58' W 002°56'0 0.2
2018-Jun-20 03:27N 46°58' W 002°56'0 0.7
2018-Jun-20 03:00N 46°58' W 002°56'0 0.8
2018-Jun-20 02:30N 46°58' W 002°55'1 1.1
2018-Jun-20 02:00N 46°58' W 002°54'2 4.3
2018-Jun-20 01:30N 46°57' W 002°52'2 4.6
2018-Jun-20 01:00N 46°55' W 002°49'3 5.2
2018-Jun-20 00:30N 46°54' W 002°45'4 6.1
2018-Jun-19 23:56N 46°52' W 002°41'4 6.1
2018-Jun-19 23:20N 46°50' W 002°37'2 6.0
2018-Jun-19 23:00N 46°49' W 002°34'3 5.9
2018-Jun-19 22:28N 46°48' W 002°30'3 5.8
2018-Jun-19 21:56N 46°46' W 002°26'4 5.9
2018-Jun-19 21:19N 46°44' W 002°21'1 1.9
2018-Jun-19 20:48N 46°44' W 002°21'0 0.0
2018-Jun-19 20:18N 46°44' W 002°21'1 1.0
2018-Jun-19 19:45N 46°44' W 002°21'410.3
2018-Jun-19 19:23N 46°46' W 002°26'610.4
2018-Jun-19 18:46N 46°49' W 002°34'4 9.9
2018-Jun-19 18:21N 46°51' W 002°39'5 9.9
2018-Jun-19 17:50N 46°53' W 002°46'2 1.7
2018-Jun-19 16:28N 46°54' W 002°49'4 9.3
2018-Jun-19 16:00N 46°56' W 002°55'2 4.8
2018-Jun-19 15:30N 46°57' W 002°58'0 0.1
2018-Jun-19 15:00N 46°57' W 002°58'1 1.5
2018-Jun-19 14:25N 46°57' W 002°59'0 0.3
2018-Jun-19 14:00N 46°57' W 002°59'1 1.4
2018-Jun-19 13:21N 46°57' W 002°58'3 2.3
2018-Jun-19 12:15N 46°56' W 003°02'1 3.8
2018-Jun-19 11:55N 46°57' W 003°00'1 1.0
2018-Jun-19 10:46N 46°57' W 002°59'1 2.9
2018-Jun-19 10:28N 46°57' W 002°58'3 5.5
2018-Jun-19 09:59N 46°55' W 002°58'0 0.4
2018-Jun-19 09:30N 46°55' W 002°58'1 2.6
2018-Jun-19 08:57N 46°56' W 002°60'1 1.6
2018-Jun-19 08:25N 46°56' W 002°58'0 0.5
2018-Jun-19 08:00N 46°56' W 002°59'0 0.6
2018-Jun-19 07:29N 46°56' W 002°59'1 2.9
2018-Jun-19 07:00N 46°57' W 002°58'1 2.0
2018-Jun-19 06:21N 46°58' W 002°60'1 2.8
2018-Jun-19 06:00N 46°58' W 002°59'0 0.3
2018-Jun-19 05:29N 46°58' W 002°59'0 0.1
2018-Jun-19 04:49N 46°58' W 002°59'1 2.9
2018-Jun-19 04:30N 46°58' W 003°00'0 0.2
2018-Jun-19 04:00N 46°57' W 003°00'2 4.3
2018-Jun-19 03:30N 46°56' W 002°59'0 0.6
2018-Jun-19 02:47N 46°55' W 002°59'0 0.1
2018-Jun-19 01:47N 46°55' W 002°60'4 0.7
2018-Jun-18 20:25N 46°59' W 002°59'0 0.4
2018-Jun-18 20:00N 46°59' W 002°59'1 2.9
2018-Jun-18 19:30N 46°59' W 003°01'1 2.2
2018-Jun-18 18:52N 46°60' W 002°59'0 0.9
2018-Jun-18 18:27N 46°60' W 002°60'2 1.3
2018-Jun-18 16:54N 47°01' W 003°02'2 2.9
2018-Jun-18 16:17N 47°03' W 003°01'0 0.7
2018-Jun-18 15:58N 47°03' W 003°01'2 1.2
2018-Jun-18 14:27N 47°02' W 003°04'4 3.6
2018-Jun-18 13:16N 47°04' W 003°10'0 0.7
2018-Jun-18 12:50N 47°04' W 003°10'1 1.4
2018-Jun-18 12:16N 47°03' W 003°10'2 5.1
2018-Jun-18 11:58N 47°04' W 003°08'0 0.2
2018-Jun-18 11:25N 47°04' W 003°08'1 2.9
2018-Jun-18 10:59N 47°05' W 003°07'3 5.1
2018-Jun-18 10:26N 47°03' W 003°04'0 0.1
2018-Jun-18 09:36N 47°03' W 003°04'0 1.8
2018-Jun-18 09:30N 47°03' W 003°04'1 1.5
2018-Jun-18 08:57N 47°03' W 003°03'0 0.4
2018-Jun-18 08:27N 47°03' W 003°03'1 2.5
2018-Jun-18 08:00N 47°04' W 003°04'3 4.9
2018-Jun-18 07:29N 47°03' W 003°01'0 0.7
2018-Jun-18 07:00N 47°03' W 003°01'0 0.7
2018-Jun-18 06:19N 47°03' W 003°02'1 1.9
2018-Jun-18 05:58N 47°03' W 003°01'0 0.6
2018-Jun-18 05:29N 47°03' W 003°01'0 0.4
2018-Jun-18 05:00N 47°03' W 003°01'1 2.6
2018-Jun-18 04:30N 47°03' W 003°03'0 0.8
2018-Jun-18 04:00N 47°03' W 003°02'1 1.4
2018-Jun-18 03:29N 47°03' W 003°02'2 3.9
2018-Jun-18 02:51N 47°01' W 002°60'2 4.1
2018-Jun-18 02:25N 46°59' W 002°58'48 5.0
2018-Jun-17 16:53N 46°21' W 002°16'3 0.2
2018-Jun-17 04:27N 46°22' W 002°12'4 8.7
2018-Jun-17 04:00N 46°24' W 002°07'4 8.7
2018-Jun-17 03:30N 46°25' W 002°01'5 9.0
2018-Jun-17 03:00N 46°27' W 001°55'4 8.8
2018-Jun-17 02:30N 46°28' W 001°49'2 4.5
2018-Jun-17 02:00N 46°30' W 001°47'0 0.0
2018-Jun-17 01:27N 46°30' W 001°47'0 0.0
2018-Jun-17 01:00N 46°30' W 001°47'0 0.0
2018-Jun-17 00:30N 46°30' W 001°47'0 0.0
2018-Jun-17 00:00N 46°30' W 001°47'0 0.0
2018-Jun-16 23:30N 46°30' W 001°47'0 0.0
2018-Jun-16 23:00N 46°30' W 001°47'0 0.0
2018-Jun-16 22:30N 46°30' W 001°47'0 0.0
2018-Jun-16 21:59N 46°30' W 001°47'0 0.0
2018-Jun-16 21:30N 46°30' W 001°47'0 0.0
2018-Jun-16 21:00N 46°30' W 001°47'0 0.0
2018-Jun-16 20:30N 46°30' W 001°47'0 0.0
2018-Jun-16 20:00N 46°30' W 001°47'0 0.0
2018-Jun-16 19:29N 46°30' W 001°47'0 0.0
2018-Jun-16 19:00N 46°30' W 001°47'0 0.0
2018-Jun-16 18:30N 46°30' W 001°47'0 0.0
2018-Jun-16 18:00N 46°30' W 001°47'0 0.0
2018-Jun-16 17:30N 46°30' W 001°47'0 0.0
2018-Jun-16 17:00N 46°30' W 001°47'0 0.0
2018-Jun-16 16:30N 46°30' W 001°47'0 0.0
2018-Jun-16 16:00N 46°30' W 001°47'0 0.0
2018-Jun-16 15:30N 46°30' W 001°47'0 0.0
2018-Jun-16 15:00N 46°30' W 001°47'0 0.5
2018-Jun-16 14:30N 46°30' W 001°48'4 8.1
2018-Jun-16 14:00N 46°26' W 001°46'3 6.4
2018-Jun-16 13:30N 46°23' W 001°45'0 0.2
2018-Jun-16 13:00N 46°23' W 001°45'1 2.4
2018-Jun-16 12:30N 46°22' W 001°45'2 4.1
2018-Jun-16 12:00N 46°20' W 001°44'1 1.7
2018-Jun-16 11:30N 46°20' W 001°42'2 4.6
2018-Jun-16 11:00N 46°18' W 001°44'5 9.2
2018-Jun-16 10:30N 46°13' W 001°44'0 0.9
2018-Jun-16 10:00N 46°14' W 001°43'1 2.5
2018-Jun-16 09:30N 46°14' W 001°42'2 3.8
2018-Jun-16 08:59N 46°12' W 001°42'5 9.7
2018-Jun-16 08:27N 46°09' W 001°36'0 0.6
2018-Jun-16 08:00N 46°09' W 001°36'1 2.1
2018-Jun-16 07:29N 46°10' W 001°34'2 3.2
2018-Jun-16 07:00N 46°10' W 001°36'0 0.5
2018-Jun-16 06:30N 46°10' W 001°36'1 2.1
2018-Jun-16 06:00N 46°11' W 001°38'5 9.5
2018-Jun-16 05:29N 46°15' W 001°41'5 9.6
2018-Jun-16 05:00N 46°19' W 001°43'5 9.5
2018-Jun-16 04:30N 46°24' W 001°45'5 9.5
2018-Jun-16 04:00N 46°28' W 001°47'1 2.9
2018-Jun-16 03:30N 46°30' W 001°47'0 0.0
2018-Jun-16 03:00N 46°30' W 001°47'0 0.0
2018-Jun-16 02:30N 46°30' W 001°47'0 0.0
2018-Jun-16 02:00N 46°30' W 001°47'0 0.0
2018-Jun-16 01:30N 46°30' W 001°47'0 0.0
2018-Jun-16 01:00N 46°30' W 001°47'0 0.0
2018-Jun-16 00:30N 46°30' W 001°47'0 0.0
2018-Jun-16 00:00N 46°30' W 001°47'0 0.0
2018-Jun-15 23:30N 46°30' W 001°47'0 0.0
2018-Jun-15 23:00N 46°30' W 001°47'0 0.0
2018-Jun-15 22:30N 46°30' W 001°47'0 0.0
2018-Jun-15 22:00N 46°30' W 001°47'0 0.0
2018-Jun-15 21:30N 46°30' W 001°47'0 0.0
2018-Jun-15 21:00N 46°30' W 001°47'0 0.0
2018-Jun-15 20:30N 46°30' W 001°47'0 0.0
2018-Jun-15 20:00N 46°30' W 001°47'0 0.0
2018-Jun-15 19:30N 46°30' W 001°47'0 0.0
2018-Jun-15 19:00N 46°30' W 001°47'0 0.0
2018-Jun-15 18:30N 46°30' W 001°47'0 0.0
2018-Jun-15 18:00N 46°30' W 001°47'0 0.0
2018-Jun-15 17:30N 46°30' W 001°47'0 0.0
2018-Jun-15 17:00N 46°30' W 001°47'0 0.0
2018-Jun-15 16:30N 46°30' W 001°47'0 0.0
2018-Jun-15 16:00N 46°30' W 001°47'0 0.0
2018-Jun-15 15:30N 46°30' W 001°47'0 0.0
2018-Jun-15 15:00N 46°30' W 001°47'0 0.0
2018-Jun-15 14:30N 46°30' W 001°47'0 0.0
2018-Jun-15 14:00N 46°30' W 001°47'0 0.0
2018-Jun-15 13:30N 46°30' W 001°47'0 0.0
2018-Jun-15 13:00N 46°30' W 001°47'0 0.0
2018-Jun-15 12:30N 46°30' W 001°47'0 0.0
2018-Jun-15 12:00N 46°30' W 001°47'0 0.0
2018-Jun-15 11:30N 46°30' W 001°47'0 0.0
2018-Jun-15 11:00N 46°30' W 001°47'0 0.0
2018-Jun-15 10:30N 46°30' W 001°47'0 0.0
2018-Jun-15 10:00N 46°30' W 001°47'0 0.0
2018-Jun-15 09:30N 46°30' W 001°47'0 0.0
2018-Jun-15 09:00N 46°30' W 001°47'0 0.0
2018-Jun-15 08:30N 46°30' W 001°47'0 0.0
2018-Jun-15 08:00N 46°30' W 001°47'0 0.0
2018-Jun-15 07:30N 46°30' W 001°47'0 0.0
2018-Jun-15 07:00N 46°30' W 001°47'0 0.0
2018-Jun-15 06:30N 46°30' W 001°47'0 0.0
2018-Jun-15 06:00N 46°30' W 001°47'0 0.0
2018-Jun-15 05:30N 46°30' W 001°47'0 0.0
2018-Jun-15 05:00N 46°30' W 001°47'0 0.0
2018-Jun-15 04:30N 46°30' W 001°47'0 0.0
2018-Jun-15 04:00N 46°30' W 001°47'0 0.0
2018-Jun-15 03:30N 46°30' W 001°47'0 0.0
2018-Jun-15 03:00N 46°30' W 001°47'0 0.0
2018-Jun-15 02:30N 46°30' W 001°47'0 0.0
2018-Jun-15 02:00N 46°30' W 001°47'0 0.0
2018-Jun-15 01:30N 46°30' W 001°47'0 0.0
2018-Jun-15 01:00N 46°30' W 001°47'0 0.0
2018-Jun-15 00:30N 46°30' W 001°47'0 0.0
2018-Jun-15 00:00N 46°30' W 001°47'0 0.0
2018-Jun-14 23:30N 46°30' W 001°47'0 0.0
2018-Jun-14 23:00N 46°30' W 001°47'0 0.0
2018-Jun-14 22:30N 46°30' W 001°47'0 0.0
2018-Jun-14 22:00N 46°30' W 001°47'0 0.0
2018-Jun-14 21:30N 46°30' W 001°47'0 0.0
2018-Jun-14 21:00N 46°30' W 001°47'0 0.0
2018-Jun-14 20:30N 46°30' W 001°47'0 0.0
2018-Jun-14 20:00N 46°30' W 001°47'0 0.0
2018-Jun-14 19:30N 46°30' W 001°47'0 0.0
2018-Jun-14 19:00N 46°30' W 001°47'0 0.0
2018-Jun-14 18:30N 46°30' W 001°47'0 0.0
2018-Jun-14 17:59N 46°30' W 001°47'0 0.4
2018-Jun-14 17:30N 46°30' W 001°47'0 0.0
2018-Jun-14 17:00N 46°30' W 001°47'3 5.0
2018-Jun-14 16:30N 46°28' W 001°50'4 8.4
2018-Jun-14 16:00N 46°28' W 001°56'4 8.4
2018-Jun-14 15:30N 46°28' W 002°02'2 4.0
2018-Jun-14 15:00N 46°28' W 002°05'5 9.2
2018-Jun-14 14:30N 46°29' W 002°12'18 2.7
2018-Jun-14 07:57N 46°17' W 002°31'3 0.2
2018-Jun-13 20:03N 46°15' W 002°28'7 2.4
2018-Jun-13 16:58N 46°22' W 002°33'24 1.6
2018-Jun-13 02:05N 46°23' W 001°59'1 9.1
2018-Jun-13 01:58N 46°23' W 001°58'4 9.2
2018-Jun-13 01:30N 46°26' W 001°53'5 9.2
2018-Jun-13 01:00N 46°29' W 001°47'1 2.7
2018-Jun-13 00:30N 46°30' W 001°47'0 0.0
2018-Jun-13 00:00N 46°30' W 001°47'0 0.0
2018-Jun-12 23:30N 46°30' W 001°47'0 0.0
2018-Jun-12 23:00N 46°30' W 001°47'0 0.0
2018-Jun-12 22:30N 46°30' W 001°47'0 0.0
2018-Jun-12 22:00N 46°30' W 001°47'0 0.0
2018-Jun-12 21:30N 46°30' W 001°47'0 0.0
2018-Jun-12 21:00N 46°30' W 001°47'0 0.0
2018-Jun-12 20:30N 46°30' W 001°47'0 0.0
2018-Jun-12 20:00N 46°30' W 001°47'0 0.0
2018-Jun-12 19:29N 46°30' W 001°47'0 0.0
2018-Jun-12 19:00N 46°30' W 001°47'0 0.0
2018-Jun-12 18:30N 46°30' W 001°47'0 0.0
2018-Jun-12 18:00N 46°30' W 001°47'0 0.0
2018-Jun-12 17:30N 46°30' W 001°47'0 0.0
2018-Jun-12 17:00N 46°30' W 001°47'0 0.0
2018-Jun-12 16:30N 46°30' W 001°47'0 0.0
2018-Jun-12 16:00N 46°30' W 001°47'0 0.0
2018-Jun-12 15:30N 46°30' W 001°47'0 0.0
2018-Jun-12 15:00N 46°30' W 001°47'0 0.0
2018-Jun-12 14:30N 46°30' W 001°47'0 0.0
2018-Jun-12 14:00N 46°30' W 001°47'0 0.0
2018-Jun-12 13:30N 46°30' W 001°47'0 0.0
2018-Jun-12 13:00N 46°30' W 001°47'0 0.0
2018-Jun-12 12:30N 46°30' W 001°47'0 0.0
2018-Jun-12 12:00N 46°30' W 001°47'0 0.0
2018-Jun-12 11:30N 46°30' W 001°47'0 0.0
2018-Jun-12 11:00N 46°30' W 001°47'0 0.0
2018-Jun-12 10:30N 46°30' W 001°47'0 0.0
2018-Jun-12 10:00N 46°30' W 001°47'0 0.0
2018-Jun-12 09:30N 46°30' W 001°47'0 0.0
2018-Jun-12 09:00N 46°30' W 001°47'0 0.0
2018-Jun-12 08:30N 46°30' W 001°47'0 0.0
2018-Jun-12 08:00N 46°30' W 001°47'0 0.0
2018-Jun-12 07:30N 46°30' W 001°47'0 0.0
2018-Jun-12 07:00N 46°30' W 001°47'0 0.0
2018-Jun-12 06:30N 46°30' W 001°47'0 0.0
2018-Jun-12 06:00N 46°30' W 001°47'0 0.0
2018-Jun-12 05:30N 46°30' W 001°47'0 0.0
2018-Jun-12 05:00N 46°30' W 001°47'0 0.0
2018-Jun-12 04:30N 46°30' W 001°47'0 0.0
2018-Jun-12 04:00N 46°30' W 001°47'0 0.0
2018-Jun-12 03:30N 46°30' W 001°47'0 0.0
2018-Jun-12 03:00N 46°30' W 001°47'  
Track history (hours):
 
Tides and Currents Weather Stations Pressure Air Temp Water Temp Dewpoint Dewpoint Depression Visibility Wind Speed Wind Dir Waves Ship Positions

F/V Manbrisa

Last reported at 2018-Jun-22 02:56 UTC. Time now 2018-Jun-22 07:43 UTC.
Position N 46°36' W 002°11'.

Length 18 m.

Type: Fishing. MMSI: 228229900.

Date/timePositionNaut miles runAvg speedWind from/ knotsBaromVisibWave heightAir tempDewpointWater temp
2018-Jun-22 02:56N 46°36' W 002°11'510.6
2018-Jun-22 02:30N 46°34' W 002°05'510.7
2018-Jun-22 02:00N 46°31' W 001°58'510.5
2018-Jun-22 01:30N 46°29' W 001°51'3 5.8
2018-Jun-22 01:00N 46°30' W 001°47'0 0.0
2018-Jun-22 00:29N 46°30' W 001°47'0 0.3
2018-Jun-22 00:00N 46°30' W 001°47'0 0.9
2018-Jun-21 23:30N 46°29' W 001°48'3 6.2
2018-Jun-21 23:00N 46°29' W 001°52'4 9.0
2018-Jun-21 22:30N 46°31' W 001°58'4 8.7
2018-Jun-21 22:00N 46°33' W 002°04'4 9.1
2018-Jun-21 21:30N 46°35' W 002°10'5 9.4
2018-Jun-21 20:58N 46°37' W 002°16'6 9.3
2018-Jun-21 20:22N 46°40' W 002°23'34 3.9
2018-Jun-21 11:34N 46°59' W 003°05'1 8.1
2018-Jun-21 11:29N 47°00' W 003°04'1 1.1
2018-Jun-21 10:49N 46°60' W 003°06'0 0.9
2018-Jun-21 10:21N 47°00' W 003°05'0 0.6
2018-Jun-21 09:59N 47°00' W 003°05'0 0.9
2018-Jun-21 09:28N 47°01' W 003°05'1 2.0
2018-Jun-21 08:58N 47°01' W 003°04'1 1.6
2018-Jun-21 08:19N 47°02' W 003°05'0 0.8
2018-Jun-21 07:46N 47°02' W 003°05'1 0.6
2018-Jun-21 06:31N 47°03' W 003°05'0 8.0
2018-Jun-21 06:28N 47°03' W 003°04'1 3.0
2018-Jun-21 05:59N 47°03' W 003°06'0 0.5
2018-Jun-21 05:23N 47°04' W 003°06'1 2.8
2018-Jun-21 04:59N 47°04' W 003°05'2 4.4
2018-Jun-21 04:29N 47°04' W 003°08'0 0.8
2018-Jun-21 03:59N 47°04' W 003°08'0 0.5
2018-Jun-21 03:30N 47°04' W 003°08'1 1.2
2018-Jun-21 03:00N 47°04' W 003°09'0 0.3
2018-Jun-21 02:30N 47°04' W 003°09'1 2.3
2018-Jun-21 02:00N 47°03' W 003°10'1 1.2
2018-Jun-21 01:30N 47°03' W 003°09'1 1.2
2018-Jun-21 01:00N 47°03' W 003°08'1 1.3
2018-Jun-21 00:30N 47°04' W 003°07'2 4.9
2018-Jun-21 00:00N 47°06' W 003°09'2 4.9
2018-Jun-20 23:30N 47°08' W 003°10'3 5.2
2018-Jun-20 23:00N 47°11' W 003°12'1 2.4
2018-Jun-20 22:30N 47°09' W 003°12'3 5.7
2018-Jun-20 21:58N 47°07' W 003°10'3 5.7
2018-Jun-20 21:29N 47°05' W 003°08'3 5.6
2018-Jun-20 21:00N 47°02' W 003°05'6 3.6
2018-Jun-20 19:18N 46°57' W 003°01'1 2.4
2018-Jun-20 19:00N 46°57' W 003°00'2 4.1
2018-Jun-20 18:30N 46°55' W 003°02'2 4.2
2018-Jun-20 17:59N 46°54' W 003°04'1 1.3
2018-Jun-20 17:30N 46°53' W 003°05'5 3.0
2018-Jun-20 15:41N 46°58' W 003°01'1 0.5
2018-Jun-20 14:25N 46°59' W 003°02'2 1.4
2018-Jun-20 13:14N 46°58' W 003°04'1 3.8
2018-Jun-20 13:00N 46°59' W 003°03'1 0.6
2018-Jun-20 11:49N 46°59' W 003°03'1 1.0
2018-Jun-20 11:04N 46°59' W 003°04'0 0.9
2018-Jun-20 10:50N 46°59' W 003°04'0 0.5
2018-Jun-20 10:26N 46°59' W 003°04'1 2.4
2018-Jun-20 09:56N 46°60' W 003°02'1 2.3
2018-Jun-20 09:27N 47°01' W 003°02'2 3.3
2018-Jun-20 08:56N 46°60' W 003°01'0 0.4
2018-Jun-20 08:28N 46°60' W 003°01'1 1.1
2018-Jun-20 07:50N 46°60' W 003°02'1 1.8
2018-Jun-20 07:20N 47°00' W 003°01'0 0.9
2018-Jun-20 06:54N 47°00' W 003°00'1 1.6
2018-Jun-20 06:13N 46°59' W 003°00'0 0.3
2018-Jun-20 06:00N 46°59' W 002°60'1 1.3
2018-Jun-20 05:30N 46°59' W 003°01'1 1.1
2018-Jun-20 05:00N 46°59' W 003°00'2 3.0
2018-Jun-20 04:29N 46°58' W 002°58'2 3.3
2018-Jun-20 04:00N 46°58' W 002°56'0 0.2
2018-Jun-20 03:27N 46°58' W 002°56'0 0.7
2018-Jun-20 03:00N 46°58' W 002°56'0 0.8
2018-Jun-20 02:30N 46°58' W 002°55'1 1.1
2018-Jun-20 02:00N 46°58' W 002°54'2 4.3
2018-Jun-20 01:30N 46°57' W 002°52'2 4.6
2018-Jun-20 01:00N 46°55' W 002°49'3 5.2
2018-Jun-20 00:30N 46°54' W 002°45'4 6.1
2018-Jun-19 23:56N 46°52' W 002°41'4 6.1
2018-Jun-19 23:20N 46°50' W 002°37'2 6.0
2018-Jun-19 23:00N 46°49' W 002°34'3 5.9
2018-Jun-19 22:28N 46°48' W 002°30'3 5.8
2018-Jun-19 21:56N 46°46' W 002°26'4 5.9
2018-Jun-19 21:19N 46°44' W 002°21'1 1.9
2018-Jun-19 20:48N 46°44' W 002°21'0 0.0
2018-Jun-19 20:18N 46°44' W 002°21'1 1.0
2018-Jun-19 19:45N 46°44' W 002°21'410.3
2018-Jun-19 19:23N 46°46' W 002°26'610.4
2018-Jun-19 18:46N 46°49' W 002°34'4 9.9
2018-Jun-19 18:21N 46°51' W 002°39'5 9.9
2018-Jun-19 17:50N 46°53' W 002°46'2 1.7
2018-Jun-19 16:28N 46°54' W 002°49'4 9.3
2018-Jun-19 16:00N 46°56' W 002°55'2 4.8
2018-Jun-19 15:30N 46°57' W 002°58'0 0.1
2018-Jun-19 15:00N 46°57' W 002°58'1 1.5
2018-Jun-19 14:25N 46°57' W 002°59'0 0.3
2018-Jun-19 14:00N 46°57' W 002°59'1 1.4
2018-Jun-19 13:21N 46°57' W 002°58'3 2.3
2018-Jun-19 12:15N 46°56' W 003°02'1 3.8
2018-Jun-19 11:55N 46°57' W 003°00'1 1.0
2018-Jun-19 10:46N 46°57' W 002°59'1 2.9
2018-Jun-19 10:28N 46°57' W 002°58'3 5.5
2018-Jun-19 09:59N 46°55' W 002°58'0 0.4
2018-Jun-19 09:30N 46°55' W 002°58'1 2.6
2018-Jun-19 08:57N 46°56' W 002°60'1 1.6
2018-Jun-19 08:25N 46°56' W 002°58'0 0.5
2018-Jun-19 08:00N 46°56' W 002°59'0 0.6
2018-Jun-19 07:29N 46°56' W 002°59'1 2.9
2018-Jun-19 07:00N 46°57' W 002°58'1 2.0
2018-Jun-19 06:21N 46°58' W 002°60'1 2.8
2018-Jun-19 06:00N 46°58' W 002°59'0 0.3
2018-Jun-19 05:29N 46°58' W 002°59'0 0.1
2018-Jun-19 04:49N 46°58' W 002°59'1 2.9
2018-Jun-19 04:30N 46°58' W 003°00'0 0.2
2018-Jun-19 04:00N 46°57' W 003°00'2 4.3
2018-Jun-19 03:30N 46°56' W 002°59'0 0.6
2018-Jun-19 02:47N 46°55' W 002°59'0 0.1
2018-Jun-19 01:47N 46°55' W 002°60'4 0.7
2018-Jun-18 20:25N 46°59' W 002°59'0 0.4
2018-Jun-18 20:00N 46°59' W 002°59'1 2.9
2018-Jun-18 19:30N 46°59' W 003°01'1 2.2
2018-Jun-18 18:52N 46°60' W 002°59'0 0.9
2018-Jun-18 18:27N 46°60' W 002°60'2 1.3
2018-Jun-18 16:54N 47°01' W 003°02'2 2.9
2018-Jun-18 16:17N 47°03' W 003°01'0 0.7
2018-Jun-18 15:58N 47°03' W 003°01'2 1.2
2018-Jun-18 14:27N 47°02' W 003°04'4 3.6
2018-Jun-18 13:16N 47°04' W 003°10'0 0.7
2018-Jun-18 12:50N 47°04' W 003°10'1 1.4
2018-Jun-18 12:16N 47°03' W 003°10'2 5.1
2018-Jun-18 11:58N 47°04' W 003°08'0 0.2
2018-Jun-18 11:25N 47°04' W 003°08'1 2.9
2018-Jun-18 10:59N 47°05' W 003°07'3 5.1
2018-Jun-18 10:26N 47°03' W 003°04'0 0.1
2018-Jun-18 09:36N 47°03' W 003°04'0 1.8
2018-Jun-18 09:30N 47°03' W 003°04'1 1.5
2018-Jun-18 08:57N 47°03' W 003°03'0 0.4
2018-Jun-18 08:27N 47°03' W 003°03'1 2.5
2018-Jun-18 08:00N 47°04' W 003°04'3 4.9
2018-Jun-18 07:29N 47°03' W 003°01'0 0.7
2018-Jun-18 07:00N 47°03' W 003°01'0 0.7
2018-Jun-18 06:19N 47°03' W 003°02'1 1.9
2018-Jun-18 05:58N 47°03' W 003°01'0 0.6
2018-Jun-18 05:29N 47°03' W 003°01'0 0.4
2018-Jun-18 05:00N 47°03' W 003°01'1 2.6
2018-Jun-18 04:30N 47°03' W 003°03'0 0.8
2018-Jun-18 04:00N 47°03' W 003°02'1 1.4
2018-Jun-18 03:29N 47°03' W 003°02'2 3.9
2018-Jun-18 02:51N 47°01' W 002°60'2 4.1
2018-Jun-18 02:25N 46°59' W 002°58'48 5.0
2018-Jun-17 16:53N 46°21' W 002°16'3 0.2
2018-Jun-17 04:27N 46°22' W 002°12'4 8.7
2018-Jun-17 04:00N 46°24' W 002°07'4 8.7
2018-Jun-17 03:30N 46°25' W 002°01'5 9.0
2018-Jun-17 03:00N 46°27' W 001°55'4 8.8
2018-Jun-17 02:30N 46°28' W 001°49'2 4.5
2018-Jun-17 02:00N 46°30' W 001°47'0 0.0
2018-Jun-17 01:27N 46°30' W 001°47'0 0.0
2018-Jun-17 01:00N 46°30' W 001°47'0 0.0
2018-Jun-17 00:30N 46°30' W 001°47'0 0.0
2018-Jun-17 00:00N 46°30' W 001°47'0 0.0
2018-Jun-16 23:30N 46°30' W 001°47'0 0.0
2018-Jun-16 23:00N 46°30' W 001°47'0 0.0
2018-Jun-16 22:30N 46°30' W 001°47'0 0.0
2018-Jun-16 21:59N 46°30' W 001°47'0 0.0
2018-Jun-16 21:30N 46°30' W 001°47'0 0.0
2018-Jun-16 21:00N 46°30' W 001°47'0 0.0
2018-Jun-16 20:30N 46°30' W 001°47'0 0.0
2018-Jun-16 20:00N 46°30' W 001°47'0 0.0
2018-Jun-16 19:29N 46°30' W 001°47'0 0.0
2018-Jun-16 19:00N 46°30' W 001°47'0 0.0
2018-Jun-16 18:30N 46°30' W 001°47'0 0.0
2018-Jun-16 18:00N 46°30' W 001°47'0 0.0
2018-Jun-16 17:30N 46°30' W 001°47'0 0.0
2018-Jun-16 17:00N 46°30' W 001°47'0 0.0
2018-Jun-16 16:30N 46°30' W 001°47'0 0.0
2018-Jun-16 16:00N 46°30' W 001°47'0 0.0
2018-Jun-16 15:30N 46°30' W 001°47'0 0.0
2018-Jun-16 15:00N 46°30' W 001°47'0 0.5
2018-Jun-16 14:30N 46°30' W 001°48'4 8.1
2018-Jun-16 14:00N 46°26' W 001°46'3 6.4
2018-Jun-16 13:30N 46°23' W 001°45'0 0.2
2018-Jun-16 13:00N 46°23' W 001°45'1 2.4
2018-Jun-16 12:30N 46°22' W 001°45'2 4.1
2018-Jun-16 12:00N 46°20' W 001°44'1 1.7
2018-Jun-16 11:30N 46°20' W 001°42'2 4.6
2018-Jun-16 11:00N 46°18' W 001°44'5 9.2
2018-Jun-16 10:30N 46°13' W 001°44'0 0.9
2018-Jun-16 10:00N 46°14' W 001°43'1 2.5
2018-Jun-16 09:30N 46°14' W 001°42'2 3.8
2018-Jun-16 08:59N 46°12' W 001°42'5 9.7
2018-Jun-16 08:27N 46°09' W 001°36'0 0.6
2018-Jun-16 08:00N 46°09' W 001°36'1 2.1
2018-Jun-16 07:29N 46°10' W 001°34'2 3.2
2018-Jun-16 07:00N 46°10' W 001°36'0 0.5
2018-Jun-16 06:30N 46°10' W 001°36'1 2.1
2018-Jun-16 06:00N 46°11' W 001°38'5 9.5
2018-Jun-16 05:29N 46°15' W 001°41'5 9.6
2018-Jun-16 05:00N 46°19' W 001°43'5 9.5
2018-Jun-16 04:30N 46°24' W 001°45'5 9.5
2018-Jun-16 04:00N 46°28' W 001°47'1 2.9
2018-Jun-16 03:30N 46°30' W 001°47'0 0.0
2018-Jun-16 03:00N 46°30' W 001°47'0 0.0
2018-Jun-16 02:30N 46°30' W 001°47'0 0.0
2018-Jun-16 02:00N 46°30' W 001°47'0 0.0
2018-Jun-16 01:30N 46°30' W 001°47'0 0.0
2018-Jun-16 01:00N 46°30' W 001°47'0 0.0
2018-Jun-16 00:30N 46°30' W 001°47'0 0.0
2018-Jun-16 00:00N 46°30' W 001°47'0 0.0
2018-Jun-15 23:30N 46°30' W 001°47'0 0.0
2018-Jun-15 23:00N 46°30' W 001°47'0 0.0
2018-Jun-15 22:30N 46°30' W 001°47'0 0.0
2018-Jun-15 22:00N 46°30' W 001°47'0 0.0
2018-Jun-15 21:30N 46°30' W 001°47'0 0.0
2018-Jun-15 21:00N 46°30' W 001°47'0 0.0
2018-Jun-15 20:30N 46°30' W 001°47'0 0.0
2018-Jun-15 20:00N 46°30' W 001°47'0 0.0
2018-Jun-15 19:30N 46°30' W 001°47'0 0.0
2018-Jun-15 19:00N 46°30' W 001°47'0 0.0
2018-Jun-15 18:30N 46°30' W 001°47'0 0.0
2018-Jun-15 18:00N 46°30' W 001°47'0 0.0
2018-Jun-15 17:30N 46°30' W 001°47'0 0.0
2018-Jun-15 17:00N 46°30' W 001°47'0 0.0
2018-Jun-15 16:30N 46°30' W 001°47'0 0.0
2018-Jun-15 16:00N 46°30' W 001°47'0 0.0
2018-Jun-15 15:30N 46°30' W 001°47'0 0.0
2018-Jun-15 15:00N 46°30' W 001°47'0 0.0
2018-Jun-15 14:30N 46°30' W 001°47'0 0.0
2018-Jun-15 14:00N 46°30' W 001°47'0 0.0
2018-Jun-15 13:30N 46°30' W 001°47'0 0.0
2018-Jun-15 13:00N 46°30' W 001°47'0 0.0
2018-Jun-15 12:30N 46°30' W 001°47'0 0.0
2018-Jun-15 12:00N 46°30' W 001°47'0 0.0
2018-Jun-15 11:30N 46°30' W 001°47'0 0.0
2018-Jun-15 11:00N 46°30' W 001°47'0 0.0
2018-Jun-15 10:30N 46°30' W 001°47'0 0.0
2018-Jun-15 10:00N 46°30' W 001°47'0 0.0
2018-Jun-15 09:30N 46°30' W 001°47'0 0.0
2018-Jun-15 09:00N 46°30' W 001°47'0 0.0
2018-Jun-15 08:30N 46°30' W 001°47'0 0.0
2018-Jun-15 08:00N 46°30' W 001°47'0 0.0
2018-Jun-15 07:30N 46°30' W 001°47'0 0.0
2018-Jun-15 07:00N 46°30' W 001°47'0 0.0
2018-Jun-15 06:30N 46°30' W 001°47'0 0.0
2018-Jun-15 06:00N 46°30' W 001°47'0 0.0
2018-Jun-15 05:30N 46°30' W 001°47'0 0.0
2018-Jun-15 05:00N 46°30' W 001°47'0 0.0
2018-Jun-15 04:30N 46°30' W 001°47'0 0.0
2018-Jun-15 04:00N 46°30' W 001°47'0 0.0
2018-Jun-15 03:30N 46°30' W 001°47'0 0.0
2018-Jun-15 03:00N 46°30' W 001°47'0 0.0
2018-Jun-15 02:30N 46°30' W 001°47'0 0.0
2018-Jun-15 02:00N 46°30' W 001°47'0 0.0
2018-Jun-15 01:30N 46°30' W 001°47'0 0.0
2018-Jun-15 01:00N 46°30' W 001°47'0 0.0
2018-Jun-15 00:30N 46°30' W 001°47'0 0.0
2018-Jun-15 00:00N 46°30' W 001°47'0 0.0
2018-Jun-14 23:30N 46°30' W 001°47'0 0.0
2018-Jun-14 23:00N 46°30' W 001°47'0 0.0
2018-Jun-14 22:30N 46°30' W 001°47'0 0.0
2018-Jun-14 22:00N 46°30' W 001°47'0 0.0
2018-Jun-14 21:30N 46°30' W 001°47'0 0.0
2018-Jun-14 21:00N 46°30' W 001°47'0 0.0
2018-Jun-14 20:30N 46°30' W 001°47'0 0.0
2018-Jun-14 20:00N 46°30' W 001°47'0 0.0
2018-Jun-14 19:30N 46°30' W 001°47'0 0.0
2018-Jun-14 19:00N 46°30' W 001°47'0 0.0
2018-Jun-14 18:30N 46°30' W 001°47'0 0.0
2018-Jun-14 17:59N 46°30' W 001°47'0 0.4
2018-Jun-14 17:30N 46°30' W 001°47'0 0.0
2018-Jun-14 17:00N 46°30' W 001°47'3 5.0
2018-Jun-14 16:30N 46°28' W 001°50'4 8.4
2018-Jun-14 16:00N 46°28' W 001°56'4 8.4
2018-Jun-14 15:30N 46°28' W 002°02'2 4.0
2018-Jun-14 15:00N 46°28' W 002°05'5 9.2
2018-Jun-14 14:30N 46°29' W 002°12'18 2.7
2018-Jun-14 07:57N 46°17' W 002°31'3 0.2
2018-Jun-13 20:03N 46°15' W 002°28'7 2.4
2018-Jun-13 16:58N 46°22' W 002°33'24 1.6
2018-Jun-13 02:05N 46°23' W 001°59'1 9.1
2018-Jun-13 01:58N 46°23' W 001°58'4 9.2
2018-Jun-13 01:30N 46°26' W 001°53'5 9.2
2018-Jun-13 01:00N 46°29' W 001°47'1 2.7
2018-Jun-13 00:30N 46°30' W 001°47'0 0.0
2018-Jun-13 00:00N 46°30' W 001°47'0 0.0
2018-Jun-12 23:30N 46°30' W 001°47'0 0.0
2018-Jun-12 23:00N 46°30' W 001°47'0 0.0
2018-Jun-12 22:30N 46°30' W 001°47'0 0.0
2018-Jun-12 22:00N 46°30' W 001°47'0 0.0
2018-Jun-12 21:30N 46°30' W 001°47'0 0.0
2018-Jun-12 21:00N 46°30' W 001°47'0 0.0
2018-Jun-12 20:30N 46°30' W 001°47'0 0.0
2018-Jun-12 20:00N 46°30' W 001°47'0 0.0
2018-Jun-12 19:29N 46°30' W 001°47'0 0.0
2018-Jun-12 19:00N 46°30' W 001°47'0 0.0
2018-Jun-12 18:30N 46°30' W 001°47'0 0.0
2018-Jun-12 18:00N 46°30' W 001°47'0 0.0
2018-Jun-12 17:30N 46°30' W 001°47'0 0.0
2018-Jun-12 17:00N 46°30' W 001°47'0 0.0
2018-Jun-12 16:30N 46°30' W 001°47'0 0.0
2018-Jun-12 16:00N 46°30' W 001°47'0 0.0
2018-Jun-12 15:30N 46°30' W 001°47'0 0.0
2018-Jun-12 15:00N 46°30' W 001°47'0 0.0
2018-Jun-12 14:30N 46°30' W 001°47'0 0.0
2018-Jun-12 14:00N 46°30' W 001°47'0 0.0
2018-Jun-12 13:30N 46°30' W 001°47'0 0.0
2018-Jun-12 13:00N 46°30' W 001°47'0 0.0
2018-Jun-12 12:30N 46°30' W 001°47'0 0.0
2018-Jun-12 12:00N 46°30' W 001°47'0 0.0
2018-Jun-12 11:30N 46°30' W 001°47'0 0.0
2018-Jun-12 11:00N 46°30' W 001°47'0 0.0
2018-Jun-12 10:30N 46°30' W 001°47'0 0.0
2018-Jun-12 10:00N 46°30' W 001°47'0 0.0
2018-Jun-12 09:30N 46°30' W 001°47'0 0.0
2018-Jun-12 09:00N 46°30' W 001°47'0 0.0
2018-Jun-12 08:30N 46°30' W 001°47'0 0.0
2018-Jun-12 08:00N 46°30' W 001°47'0 0.0
2018-Jun-12 07:30N 46°30' W 001°47'0 0.0
2018-Jun-12 07:00N 46°30' W 001°47'0 0.0
2018-Jun-12 06:30N 46°30' W 001°47'0 0.0
2018-Jun-12 06:00N 46°30' W 001°47'0 0.0
2018-Jun-12 05:30N 46°30' W 001°47'0 0.0
2018-Jun-12 05:00N 46°30' W 001°47'0 0.0
2018-Jun-12 04:30N 46°30' W 001°47'0 0.0
2018-Jun-12 04:00N 46°30' W 001°47'0 0.0
2018-Jun-12 03:30N 46°30' W 001°47'0 0.0
2018-Jun-12 03:00N 46°30' W 001°47'  

Dump ship's entire track history